Time;durP1;ratioP1;P1;durP2;ratioP2;P2;SDS_P1;SDS_P2;PMS_P1;PMS_P2;Temp;Humidity;BMP_temperature;BMP_pressure;BME280_temperature;BME280_humidity;BME280_pressure;Samples;Min_cycle;Max_cycle;Signal;HPM_P1;HPM_P2
2022/07/05 00:01:03;;;;;;;10.30;6.18;;;22.10;99.90;;;;;;5053273;28;20480;-62
2022/07/05 00:03:28;;;;;;;13.10;7.20;;;22.10;99.90;;;;;;5053542;28;20036;-62
2022/07/05 00:05:55;;;;;;;13.95;6.90;;;22.00;99.90;;;;;;5053209;28;20619;-62
2022/07/05 00:08:21;;;;;;;8.75;5.65;;;21.90;99.90;;;;;;5053039;28;20060;-62
2022/07/05 00:10:47;;;;;;;11.00;6.75;;;21.80;99.90;;;;;;5035320;28;20477;-62
2022/07/05 00:13:14;;;;;;;13.32;5.68;;;21.70;99.90;;;;;;5035593;28;20104;-62
2022/07/05 00:15:40;;;;;;;12.80;5.75;;;21.70;99.90;;;;;;5053428;28;20032;-63
2022/07/05 00:18:06;;;;;;;11.63;5.78;;;21.60;99.90;;;;;;5053311;28;20102;-62
2022/07/05 00:20:31;;;;;;;9.60;6.20;;;21.60;99.90;;;;;;5053099;28;20437;-62
2022/07/05 00:22:57;;;;;;;10.38;6.05;;;21.60;99.90;;;;;;5052889;28;20021;-62
2022/07/05 00:25:23;;;;;;;9.82;5.57;;;21.60;99.90;;;;;;5056698;28;20027;-62
2022/07/05 00:27:48;;;;;;;13.45;5.57;;;21.60;99.90;;;;;;5058290;28;20782;-62
2022/07/05 00:30:14;;;;;;;12.88;5.47;;;21.60;99.90;;;;;;5052827;28;20021;-61
2022/07/05 00:32:40;;;;;;;11.77;6.05;;;21.60;99.90;;;;;;5052735;28;20371;-62
2022/07/05 00:35:07;;;;;;;12.60;5.72;;;21.60;99.90;;;;;;5053159;28;20408;-62
2022/07/05 00:37:33;;;;;;;8.75;5.70;;;21.70;99.90;;;;;;5052606;28;20035;-62
2022/07/05 00:39:59;;;;;;;11.25;6.30;;;21.70;99.90;;;;;;5034859;28;20017;-62
2022/07/05 00:42:25;;;;;;;10.02;6.03;;;21.70;99.90;;;;;;5052386;28;20045;-63
2022/07/05 00:44:51;;;;;;;8.30;6.10;;;21.80;99.90;;;;;;5052690;28;20029;-61
2022/07/05 00:47:16;;;;;;;10.07;5.47;;;21.80;99.90;;;;;;5052502;28;20098;-63
2022/07/05 00:49:42;;;;;;;10.52;5.88;;;21.90;99.90;;;;;;5052378;28;20407;-64
2022/07/05 00:52:09;;;;;;;9.00;5.20;;;21.70;99.90;;;;;;5034349;28;20041;-62
2022/07/05 00:54:37;;;;;;;11.02;6.05;;;21.80;99.90;;;;;;5052191;28;20216;-61
2022/07/05 00:57:03;;;;;;;;;;;21.80;99.90;;;;;;5034695;28;20488;-62
2022/07/05 00:59:29;;;;;;;10.88;5.95;;;21.70;99.90;;;;;;5052278;28;19984;-62
2022/07/05 01:01:56;;;;;;;9.00;6.23;;;21.30;99.90;;;;;;5052247;28;20025;-63
2022/07/05 01:04:21;;;;;;;12.00;6.35;;;21.30;99.90;;;;;;5052329;28;20053;-63
2022/07/05 01:06:49;;;;;;;9.35;5.75;;;21.40;99.90;;;;;;5052069;28;20534;-61
2022/07/05 01:09:17;;;;;;;12.35;6.03;;;21.50;99.90;;;;;;5052193;28;20036;-62
2022/07/05 01:11:50;;;;;;;10.43;5.57;;;21.60;99.90;;;;;;5052091;28;20108;-61
2022/07/05 01:14:20;;;;;;;11.10;5.25;;;21.60;99.90;;;;;;5052447;28;20111;-62
2022/07/05 01:16:48;;;;;;;10.65;5.88;;;21.50;99.90;;;;;;5034095;28;20048;-63
2022/07/05 01:19:14;;;;;;;12.20;6.07;;;21.60;99.90;;;;;;5051232;28;20037;-61
2022/07/05 01:21:42;;;;;;;9.35;5.63;;;21.50;99.90;;;;;;5051927;28;20083;-62
2022/07/05 01:24:13;;;;;;;12.35;6.43;;;21.20;99.90;;;;;;5058673;28;20017;-62
2022/07/05 01:26:40;;;;;;;12.07;6.28;;;21.10;99.90;;;;;;5057579;28;20021;-61
2022/07/05 01:29:07;;;;;;;10.15;6.05;;;20.90;99.90;;;;;;5051964;28;20021;-61
2022/07/05 01:31:36;;;;;;;9.35;5.85;;;20.90;99.90;;;;;;5052184;28;20060;-60
2022/07/05 01:34:02;;;;;;;14.85;5.43;;;20.90;99.90;;;;;;5052021;28;20108;-61
2022/07/05 01:36:28;;;;;;;11.27;5.18;;;21.00;99.90;;;;;;5051982;28;20032;-61
2022/07/05 01:38:53;;;;;;;9.10;5.40;;;21.00;99.90;;;;;;5051961;28;20021;-62
2022/07/05 01:41:19;;;;;;;11.20;6.15;;;21.10;99.90;;;;;;5032894;28;20055;-63
2022/07/05 01:43:45;;;;;;;10.38;5.82;;;21.10;99.90;;;;;;5051902;28;20063;-62
2022/07/05 01:46:12;;;;;;;14.32;5.85;;;21.10;99.90;;;;;;5051340;28;20504;-61
2022/07/05 01:48:39;;;;;;;10.88;5.45;;;21.10;99.90;;;;;;5051870;28;20115;-62
2022/07/05 01:51:18;;;;;;;9.88;5.45;;;21.10;99.90;;;;;;5051718;28;20036;-62
2022/07/05 01:53:46;;;;;;;10.23;5.88;;;21.10;99.90;;;;;;5051729;28;20033;-62
2022/07/05 01:56:12;;;;;;;13.38;5.95;;;21.10;99.90;;;;;;5051973;28;20564;-62
2022/07/05 01:58:39;;;;;;;19.10;5.70;;;21.10;99.90;;;;;;5051763;28;20108;-63
2022/07/05 02:01:04;;;;;;;13.55;6.70;;;21.00;99.90;;;;;;5051793;28;20044;-62
2022/07/05 02:03:31;;;;;;;13.02;6.82;;;21.00;99.90;;;;;;5051624;28;20480;-62
2022/07/05 02:05:57;;;;;;;14.00;6.37;;;20.90;99.90;;;;;;5051527;28;20029;-62
2022/07/05 02:08:29;;;;;;;12.82;6.00;;;20.80;99.90;;;;;;5051444;28;20663;-61
2022/07/05 02:10:55;;;;;;;9.18;6.13;;;20.90;99.90;;;;;;5051717;28;20021;-62
2022/07/05 02:13:21;;;;;;;13.30;7.20;;;20.70;99.90;;;;;;5052028;28;20032;-61
2022/07/05 02:15:47;;;;;;;12.82;7.22;;;20.50;99.90;;;;;;5051659;28;20102;-61
2022/07/05 02:18:13;;;;;;;11.73;6.53;;;20.40;99.90;;;;;;5051334;28;20033;-62
2022/07/05 02:20:40;;;;;;;8.77;6.55;;;20.30;99.90;;;;;;5051067;28;20271;-62
2022/07/05 02:23:07;;;;;;;13.88;7.78;;;20.40;99.90;;;;;;5055569;28;20066;-62
2022/07/05 02:25:33;;;;;;;9.38;6.63;;;20.30;99.90;;;;;;5055401;28;20179;-62
2022/07/05 02:27:59;;;;;;;12.27;7.00;;;20.10;99.90;;;;;;5050965;28;20539;-62
2022/07/05 02:30:24;;;;;;;14.30;6.72;;;19.90;99.90;;;;;;5051593;28;20025;-62
2022/07/05 02:32:50;;;;;;;11.50;6.75;;;19.90;99.90;;;;;;5051368;28;20407;-62
2022/07/05 02:35:16;;;;;;;8.27;5.70;;;20.10;99.90;;;;;;5051389;28;20267;-62
2022/07/05 02:37:42;;;;;;;10.57;7.20;;;20.10;99.90;;;;;;5051393;28;20025;-62
2022/07/05 02:40:10;;;;;;;8.20;6.55;;;20.20;99.90;;;;;;5051007;28;20537;-61
2022/07/05 02:42:36;;;;;;;10.00;7.60;;;20.30;99.90;;;;;;5050992;28;20400;-62
2022/07/05 02:45:01;;;;;;;11.63;6.85;;;20.20;99.90;;;;;;5051184;28;20032;-62
2022/07/05 02:47:30;;;;;;;8.90;6.82;;;20.30;99.90;;;;;;5051103;28;20045;-61
2022/07/05 02:49:57;;;;;;;10.18;7.75;;;20.20;99.90;;;;;;5051357;28;20021;-61
2022/07/05 02:52:23;;;;;;;;;;;20.20;99.90;;;;;;5036466;28;20104;-60
2022/07/05 02:54:49;;;;;;;11.95;7.82;;;20.10;99.90;;;;;;5054867;28;20003;-60
2022/07/05 02:57:14;;;;;;;9.27;7.50;;;20.00;99.90;;;;;;5054620;28;20021;-62
2022/07/05 02:59:40;;;;;;;11.93;7.57;;;20.00;99.90;;;;;;5054772;28;20048;-62
2022/07/05 03:02:06;;;;;;;10.00;7.90;;;20.00;99.90;;;;;;5054970;28;20092;-63
2022/07/05 03:04:31;;;;;;;11.38;7.70;;;20.00;99.90;;;;;;5054617;28;20041;-62
2022/07/05 03:06:57;;;;;;;11.32;7.90;;;19.90;99.90;;;;;;5054794;28;20029;-60
2022/07/05 03:09:23;;;;;;;9.25;7.53;;;20.00;99.90;;;;;;5054926;28;20542;-62
2022/07/05 03:11:48;;;;;;;15.05;8.27;;;20.00;99.90;;;;;;5054775;28;20041;-62
2022/07/05 03:14:14;;;;;;;13.13;7.30;;;20.00;99.90;;;;;;5054584;28;20524;-62
2022/07/05 03:16:40;;;;;;;11.15;6.72;;;20.00;99.90;;;;;;5054534;28;20037;-62
2022/07/05 03:19:06;;;;;;;12.93;7.25;;;20.00;99.90;;;;;;5054477;28;20104;-61
2022/07/05 03:21:31;;;;;;;12.32;7.15;;;20.00;99.90;;;;;;5054592;28;20021;-62
2022/07/05 03:23:57;;;;;;;14.57;7.93;;;20.00;99.90;;;;;;5063793;28;20029;-61
2022/07/05 03:26:22;;;;;;;11.98;7.60;;;19.80;99.90;;;;;;5054562;28;20132;-61
2022/07/05 03:28:48;;;;;;;10.00;7.50;;;19.60;99.90;;;;;;5054547;28;20037;-61
2022/07/05 03:31:14;;;;;;;13.00;7.80;;;19.60;99.90;;;;;;5054257;28;20023;-61
2022/07/05 03:33:39;;;;;;;10.90;7.90;;;19.60;99.90;;;;;;5054167;28;20139;-60
2022/07/05 03:36:05;;;;;;;12.30;9.15;;;19.70;99.90;;;;;;5053995;28;20104;-61
2022/07/05 03:38:31;;;;;;;17.48;8.30;;;19.80;99.90;;;;;;5053989;28;20028;-61
2022/07/05 03:40:57;;;;;;;11.98;7.93;;;19.90;99.90;;;;;;5053657;28;20060;-61
2022/07/05 03:43:23;;;;;;;12.20;8.27;;;19.90;99.90;;;;;;5053831;28;20031;-62
2022/07/05 03:45:48;;;;;;;9.13;8.00;;;20.00;99.90;;;;;;5054113;28;20021;-62
2022/07/05 03:48:14;;;;;;;12.23;9.05;;;20.10;99.90;;;;;;5053888;28;20132;-63
2022/07/05 03:50:39;;;;;;;15.98;8.95;;;20.10;99.90;;;;;;5053696;28;20060;-61
2022/07/05 03:53:05;;;;;;;12.98;7.88;;;20.20;99.90;;;;;;5053973;28;20075;-59
2022/07/05 03:55:31;;;;;;;16.70;9.02;;;20.10;99.90;;;;;;5053848;28;20544;-59
2022/07/05 03:57:56;;;;;;;12.80;8.85;;;20.10;99.90;;;;;;5035925;28;20380;-60
2022/07/05 04:00:22;;;;;;;17.25;9.90;;;20.00;99.90;;;;;;5053579;28;20104;-60
2022/07/05 04:02:48;;;;;;;12.20;9.00;;;19.90;99.90;;;;;;5052743;28;20032;-62
2022/07/05 04:05:14;;;;;;;14.88;8.75;;;19.80;99.90;;;;;;5053341;28;20554;-61
2022/07/05 04:07:53;;;;;;;12.70;9.50;;;19.70;99.90;;;;;;5053372;28;20037;-62
2022/07/05 04:10:19;;;;;;;13.45;9.23;;;19.70;99.90;;;;;;5053529;28;20039;-61
2022/07/05 04:12:46;;;;;;;12.98;9.55;;;19.60;99.90;;;;;;5053796;28;20025;-61
2022/07/05 04:15:12;;;;;;;14.90;10.10;;;19.50;99.90;;;;;;5053366;28;20032;-63
2022/07/05 04:17:55;;;;;;;13.95;9.38;;;19.40;99.90;;;;;;5053745;28;20275;-63
2022/07/05 04:20:24;;;;;;;13.32;10.32;;;19.40;99.90;;;;;;5053119;28;20025;-60
2022/07/05 04:22:50;;;;;;;14.85;10.95;;;19.40;99.90;;;;;;5061393;28;20025;-62
2022/07/05 04:25:17;;;;;;;13.80;10.65;;;19.40;99.90;;;;;;5053369;28;20033;-61
2022/07/05 04:27:47;;;;;;;16.10;10.50;;;19.00;99.90;;;;;;5053374;28;20037;-61
2022/07/05 04:30:13;;;;;;;13.57;9.65;;;19.20;99.90;;;;;;5053157;28;20029;-61
2022/07/05 04:32:39;;;;;;;13.87;10.23;;;19.30;99.90;;;;;;5053233;28;20037;-61
2022/07/05 04:35:05;;;;;;;12.90;10.07;;;19.50;99.90;;;;;;5052970;28;20473;-61
2022/07/05 04:37:30;;;;;;;17.98;11.82;;;19.30;99.90;;;;;;5052684;28;20036;-61
2022/07/05 04:39:56;;;;;;;13.52;10.63;;;19.20;99.90;;;;;;5052861;28;20025;-62
2022/07/05 04:42:22;;;;;;;15.68;11.30;;;18.90;99.90;;;;;;5052683;28;20053;-59
2022/07/05 04:44:48;;;;;;;16.88;11.30;;;19.00;99.90;;;;;;5052819;28;20032;-60
2022/07/05 04:47:13;;;;;;;12.35;9.77;;;19.00;99.90;;;;;;5051354;28;20045;-61
2022/07/05 04:49:39;;;;;;;15.75;11.32;;;19.10;99.90;;;;;;5052664;28;20063;-62
2022/07/05 04:52:05;;;;;;;13.85;10.27;;;19.30;99.90;;;;;;5034731;28;20124;-62
2022/07/05 04:54:30;;;;;;;12.65;10.55;;;19.40;99.90;;;;;;5051253;28;20032;-62
2022/07/05 04:56:56;;;;;;;13.90;9.95;;;19.50;99.90;;;;;;5052896;28;20052;-61
2022/07/05 04:59:22;;;;;;;14.05;9.68;;;19.60;99.90;;;;;;5052533;28;20025;-61
2022/07/05 05:01:47;;;;;;;16.20;10.32;;;19.80;99.90;;;;;;5052518;28;20021;-60
2022/07/05 05:04:13;;;;;;;15.27;10.52;;;19.80;99.90;;;;;;5052412;28;20365;-60
2022/07/05 05:06:39;;;;;;;15.68;10.88;;;19.80;99.90;;;;;;5052710;28;20024;-60
2022/07/05 05:09:04;;;;;;;14.60;10.60;;;19.70;99.90;;;;;;5052394;28;20032;-60
2022/07/05 05:11:30;;;;;;;15.30;10.65;;;19.60;99.90;;;;;;5053245;28;20075;-60
2022/07/05 05:13:56;;;;;;;15.68;10.60;;;19.50;99.90;;;;;;5052423;28;20029;-60
2022/07/05 05:16:21;;;;;;;20.10;12.05;;;19.50;99.90;;;;;;5051024;28;20028;-60
2022/07/05 05:18:47;;;;;;;19.02;12.07;;;19.40;99.90;;;;;;5052066;28;20495;-60
2022/07/05 05:21:12;;;;;;;16.02;12.32;;;19.50;99.90;;;;;;5059239;28;20032;-60
2022/07/05 05:23:38;;;;;;;14.32;11.13;;;19.40;99.90;;;;;;5053089;28;20032;-60
2022/07/05 05:26:04;;;;;;;16.60;11.27;;;19.40;99.90;;;;;;5052385;28;20025;-61
2022/07/05 05:28:30;;;;;;;18.38;12.48;;;19.40;99.90;;;;;;5051242;28;20036;-64
2022/07/05 05:30:55;;;;;;;15.20;12.27;;;19.40;99.90;;;;;;5051975;28;20037;-64
2022/07/05 05:33:21;;;;;;;19.30;12.80;;;19.40;99.90;;;;;;5051717;28;20056;-64
2022/07/05 05:35:47;;;;;;;15.18;12.18;;;19.40;99.90;;;;;;5052226;28;20036;-65
2022/07/05 05:38:12;;;;;;;16.48;12.27;;;19.40;99.90;;;;;;5051923;28;20439;-64
2022/07/05 05:40:38;;;;;;;17.90;12.57;;;19.30;99.90;;;;;;5051762;28;20033;-63
2022/07/05 05:43:04;;;;;;;19.30;12.95;;;19.40;99.90;;;;;;5052027;28;20500;-62
2022/07/05 05:45:30;;;;;;;15.80;13.23;;;19.50;99.90;;;;;;5051750;28;20530;-63
2022/07/05 05:47:58;;;;;;;19.15;13.60;;;19.50;99.90;;;;;;5051649;28;20091;-65
2022/07/05 05:50:31;;;;;;;17.75;13.77;;;19.50;99.90;;;;;;5051641;28;20108;-62
2022/07/05 05:52:57;;;;;;;16.55;13.48;;;19.60;99.90;;;;;;5051692;28;20108;-62
2022/07/05 05:55:25;;;;;;;13.63;12.00;;;19.70;99.90;;;;;;5051467;28;20104;-61
2022/07/05 05:57:51;;;;;;;17.00;13.35;;;19.70;99.90;;;;;;5051409;28;20373;-61
2022/07/05 06:00:18;;;;;;;15.35;13.18;;;19.80;99.90;;;;;;5051472;28;20036;-61
2022/07/05 06:02:45;;;;;;;18.58;12.85;;;19.80;99.90;;;;;;5051598;28;20068;-62
2022/07/05 06:05:11;;;;;;;17.75;13.63;;;19.70;99.90;;;;;;5051440;28;20044;-62
2022/07/05 06:08:01;;;;;;;17.58;12.93;;;19.70;99.90;;;;;;5051552;28;20393;-63
2022/07/05 06:10:30;;;;;;;15.02;13.15;;;19.70;99.90;;;;;;5050936;28;20031;-62
2022/07/05 06:13:02;;;;;;;18.63;12.98;;;19.80;99.90;;;;;;5051141;28;20028;-62
2022/07/05 06:15:28;;;;;;;15.95;12.45;;;19.70;99.90;;;;;;5033706;28;20036;-63
2022/07/05 06:17:53;;;;;;;14.20;12.55;;;19.70;99.90;;;;;;5048264;28;20017;-64
2022/07/05 06:20:22;;;;;;;21.73;13.60;;;19.40;99.90;;;;;;5057177;28;20040;-61
2022/07/05 06:22:48;;;;;;;24.08;15.10;;;19.40;99.90;;;;;;5048175;28;20387;-62
2022/07/05 06:25:14;;;;;;;18.85;14.65;;;19.30;99.90;;;;;;5050454;28;20571;-62
2022/07/05 06:27:45;;;;;;;20.15;15.00;;;19.30;99.90;;;;;;5053856;28;20044;-61
2022/07/05 06:30:14;;;;;;;19.00;15.02;;;19.30;99.90;;;;;;5055267;28;20111;-62
2022/07/05 06:32:40;;;;;;;18.13;14.65;;;19.40;99.90;;;;;;5055216;28;20119;-63
2022/07/05 06:35:06;;;;;;;18.42;15.45;;;19.30;99.90;;;;;;5055158;28;20104;-62
2022/07/05 06:37:42;;;;;;;21.48;14.95;;;19.40;99.90;;;;;;5055027;28;20028;-61
2022/07/05 06:40:09;;;;;;;20.45;16.02;;;19.30;99.90;;;;;;5055385;28;20068;-62
2022/07/05 06:42:35;;;;;;;21.08;17.30;;;19.40;99.90;;;;;;5037015;28;20094;-62
2022/07/05 06:45:01;;;;;;;25.75;18.90;;;19.30;99.90;;;;;;5036383;28;20033;-61
2022/07/05 06:47:26;;;;;;;22.75;18.10;;;19.40;99.90;;;;;;5054766;28;20029;-62
2022/07/05 06:49:52;;;;;;;23.50;19.08;;;19.40;99.90;;;;;;5055037;28;20468;-61
2022/07/05 06:52:18;;;;;;;22.73;18.88;;;19.50;99.90;;;;;;5054990;28;20021;-62
2022/07/05 06:54:43;;;;;;;24.23;19.40;;;19.40;99.90;;;;;;5054662;28;20115;-61
2022/07/05 06:57:10;;;;;;;26.25;18.23;;;19.50;99.90;;;;;;5055263;28;20140;-62
2022/07/05 06:59:36;;;;;;;23.08;18.85;;;19.40;99.90;;;;;;5054881;28;20067;-62
2022/07/05 07:02:02;;;;;;;22.05;17.30;;;19.50;99.90;;;;;;5054557;28;20098;-62
2022/07/05 07:04:28;;;;;;;23.65;18.60;;;19.60;99.90;;;;;;5054484;28;20761;-61
2022/07/05 07:06:53;;;;;;;28.50;18.58;;;19.70;99.90;;;;;;5054013;28;20039;-61
2022/07/05 07:09:20;;;;;;;19.90;17.27;;;19.60;99.90;;;;;;5054416;28;20431;-61
2022/07/05 07:11:46;;;;;;;23.45;17.50;;;19.70;99.90;;;;;;5054560;28;20033;-61
2022/07/05 07:14:12;;;;;;;24.42;18.02;;;19.70;99.90;;;;;;5053917;28;20032;-61
2022/07/05 07:16:38;;;;;;;21.85;17.20;;;19.80;99.90;;;;;;5036078;28;20021;-62
2022/07/05 07:19:04;;;;;;;21.77;15.65;;;20.00;99.90;;;;;;5057459;28;20084;-60
2022/07/05 07:21:29;;;;;;;19.92;17.10;;;20.00;99.90;;;;;;5057227;28;20044;-58
2022/07/05 07:23:55;;;;;;;25.45;17.23;;;20.00;99.90;;;;;;5054195;28;20033;-58
2022/07/05 07:26:21;;;;;;;25.58;19.23;;;20.20;99.90;;;;;;5054742;28;20021;-57
2022/07/05 07:28:46;;;;;;;25.02;19.17;;;20.20;99.90;;;;;;5053934;28;20488;-58
2022/07/05 07:31:12;;;;;;;23.83;17.30;;;20.20;99.90;;;;;;5053925;28;20368;-58
2022/07/05 07:33:38;;;;;;;21.67;18.92;;;20.20;99.90;;;;;;5054093;28;20025;-58
2022/07/05 07:36:04;;;;;;;25.52;18.98;;;20.20;99.90;;;;;;5032840;28;20032;-58
2022/07/05 07:38:30;;;;;;;24.55;18.98;;;20.20;99.90;;;;;;5050648;28;20028;-58
2022/07/05 07:40:56;;;;;;;22.13;19.23;;;20.30;99.90;;;;;;5053106;28;20071;-58
2022/07/05 07:43:22;;;;;;;21.92;18.85;;;20.30;99.90;;;;;;5053217;28;20013;-57
2022/07/05 07:45:49;;;;;;;21.77;17.88;;;20.30;99.90;;;;;;5053048;28;20014;-57
2022/07/05 07:48:14;;;;;;;21.33;18.45;;;20.30;99.90;;;;;;5035215;28;20045;-57
2022/07/05 07:50:40;;;;;;;22.80;18.55;;;20.30;99.90;;;;;;5052757;28;20754;-58
2022/07/05 07:53:06;;;;;;;21.58;19.02;;;20.40;99.90;;;;;;5051559;28;20031;-57
2022/07/05 07:55:31;;;;;;;29.90;19.90;;;20.40;99.90;;;;;;5052392;28;20481;-57
2022/07/05 07:57:57;;;;;;;24.30;19.85;;;20.40;99.90;;;;;;5052533;28;20108;-57
2022/07/05 08:00:23;;;;;;;23.55;20.75;;;20.40;99.90;;;;;;5052267;28;20018;-57
2022/07/05 08:02:48;;;;;;;25.30;20.42;;;20.50;99.90;;;;;;5034762;28;20029;-57
2022/07/05 08:05:14;;;;;;;22.23;18.65;;;20.40;99.90;;;;;;5053072;28;20017;-58
2022/07/05 08:07:40;;;;;;;26.80;21.20;;;20.30;99.90;;;;;;5053009;28;20519;-58
2022/07/05 08:10:07;;;;;;;29.27;21.63;;;20.40;99.90;;;;;;5053044;28;20049;-59
2022/07/05 08:12:33;;;;;;;;;;;20.50;99.90;;;;;;5053424;28;20104;-58
2022/07/05 08:14:59;;;;;;;23.60;20.63;;;20.40;99.90;;;;;;5053061;28;20386;-57
2022/07/05 08:17:24;;;;;;;26.75;21.30;;;20.50;99.90;;;;;;5055763;28;20051;-58
2022/07/05 08:22:34;;;;;;;23.77;20.90;;;20.40;99.90;;;;;;5050391;28;20563;-58
2022/07/05 08:25:00;;;;;;;24.48;20.23;;;20.40;99.90;;;;;;5052180;28;20100;-56
2022/07/05 08:27:26;;;;;;;27.50;21.50;;;20.50;99.90;;;;;;5052512;28;20017;-58
2022/07/05 08:29:52;;;;;;;23.77;20.42;;;20.60;99.90;;;;;;5052311;28;20606;-57
2022/07/05 08:32:17;;;;;;;23.90;20.25;;;20.60;99.90;;;;;;5052378;28;20385;-57
2022/07/05 08:34:43;;;;;;;23.42;19.45;;;20.60;99.90;;;;;;5052472;28;20079;-57
2022/07/05 08:37:09;;;;;;;22.83;19.05;;;20.70;99.90;;;;;;5052339;28;20017;-56
2022/07/05 08:39:35;;;;;;;23.42;20.55;;;20.70;99.90;;;;;;5052259;28;20021;-56
2022/07/05 08:42:01;;;;;;;21.90;18.52;;;20.80;99.90;;;;;;5052366;28;20062;-56
2022/07/05 08:44:33;;;;;;;21.80;19.23;;;20.90;99.90;;;;;;5052515;28;20056;-56
2022/07/05 08:47:02;;;;;;;24.85;20.38;;;20.90;99.90;;;;;;5052234;28;20037;-58
2022/07/05 08:49:33;;;;;;;22.92;17.58;;;20.90;99.90;;;;;;5051810;28;20107;-57
2022/07/05 08:52:03;;;;;;;20.13;18.13;;;20.80;99.90;;;;;;5052213;28;20029;-57
2022/07/05 08:54:29;;;;;;;26.65;18.73;;;20.70;99.90;;;;;;5052381;28;20024;-57
2022/07/05 08:56:55;;;;;;;24.55;18.27;;;20.60;99.90;;;;;;5052174;28;20021;-58
2022/07/05 08:59:21;;;;;;;22.08;17.10;;;20.50;99.90;;;;;;5052294;28;20082;-57
2022/07/05 09:01:48;;;;;;;25.50;19.77;;;20.50;99.90;;;;;;5051995;28;20048;-58
2022/07/05 09:04:17;;;;;;;19.02;16.38;;;20.50;99.90;;;;;;5052219;28;20563;-58
2022/07/05 09:06:46;;;;;;;20.80;18.02;;;20.60;99.90;;;;;;5052000;28;20127;-57
2022/07/05 09:09:13;;;;;;;27.20;16.95;;;20.70;99.90;;;;;;5051673;28;20017;-56
2022/07/05 09:11:43;;;;;;;18.40;14.43;;;20.70;99.90;;;;;;5052290;28;20449;-59
2022/07/05 09:14:24;;;;;;;22.02;15.75;;;20.80;99.90;;;;;;5049581;28;20267;-59
2022/07/05 09:16:49;;;;;;;19.55;14.93;;;20.80;99.90;;;;;;5052258;28;20017;-58
2022/07/05 09:19:15;;;;;;;18.13;13.60;;;21.00;99.90;;;;;;5055300;28;20078;-58
2022/07/05 09:21:41;;;;;;;18.65;13.43;;;21.00;99.90;;;;;;5052062;28;20024;-58
2022/07/05 09:24:12;;;;;;;18.25;13.13;;;20.90;99.90;;;;;;5048876;28;20040;-61
2022/07/05 09:26:39;;;;;;;18.30;13.90;;;21.10;99.90;;;;;;5051694;28;20052;-62
2022/07/05 09:29:07;;;;;;;17.80;13.75;;;21.00;99.90;;;;;;5050798;28;20033;-61
2022/07/05 09:31:35;;;;;;;15.85;12.73;;;21.00;99.90;;;;;;5032636;28;20044;-62
2022/07/05 09:34:08;;;;;;;16.65;12.90;;;21.20;99.90;;;;;;5048300;28;20033;-61
2022/07/05 09:36:57;;;;;;;17.95;13.45;;;21.20;99.90;;;;;;5050341;28;20117;-61
2022/07/05 09:39:29;;;;;;;16.38;12.95;;;21.20;99.90;;;;;;5048149;28;20064;-60
2022/07/05 09:42:25;;;;;;;17.27;12.40;;;21.20;99.90;;;;;;5050241;28;20148;-62
2022/07/05 09:44:56;;;;;;;16.60;12.52;;;21.30;99.90;;;;;;5049476;28;20025;-59
2022/07/05 09:47:28;;;;;;;21.85;13.90;;;21.20;99.90;;;;;;5050333;28;20045;-63
2022/07/05 09:49:56;;;;;;;17.35;13.43;;;21.00;99.90;;;;;;5048134;28;20028;-63
2022/07/05 09:52:31;;;;;;;15.27;12.27;;;21.10;99.90;;;;;;5050327;28;20047;-62
2022/07/05 09:55:07;;;;;;;15.57;12.07;;;21.20;99.90;;;;;;5048204;28;20027;-62
2022/07/05 09:57:34;;;;;;;16.52;11.40;;;21.30;99.90;;;;;;5029768;28;20049;-62
2022/07/05 10:00:04;;;;;;;14.10;10.50;;;21.40;99.90;;;;;;5050326;28;20075;-62
2022/07/05 10:02:50;;;;;;;18.58;10.57;;;21.50;99.90;;;;;;5049484;28;20029;-63
2022/07/05 10:05:23;;;;;;;15.00;11.38;;;21.50;99.90;;;;;;5048044;28;20044;-62
2022/07/05 10:07:50;;;;;;;13.07;10.50;;;21.40;99.90;;;;;;5031990;28;20032;-62
2022/07/05 10:10:21;;;;;;;11.60;10.43;;;21.40;99.90;;;;;;5031907;28;20067;-62
2022/07/05 10:12:52;;;;;;;13.57;10.10;;;21.40;99.90;;;;;;5050173;28;20175;-62
2022/07/05 10:15:23;;;;;;;13.90;9.02;;;21.30;99.90;;;;;;5049740;28;20025;-60
2022/07/05 10:17:52;;;;;;;13.70;9.70;;;21.40;99.90;;;;;;5055085;28;20063;-61
2022/07/05 10:20:42;;;;;;;13.90;10.52;;;21.50;99.90;;;;;;5050060;28;20416;-61
2022/07/05 10:23:15;;;;;;;12.70;9.90;;;21.50;99.90;;;;;;5049567;28;20572;-60
2022/07/05 10:25:43;;;;;;;12.25;10.10;;;21.40;99.90;;;;;;5049847;28;20476;-60
2022/07/05 10:28:10;;;;;;;13.20;10.15;;;21.40;99.90;;;;;;5049798;28;20116;-63
2022/07/05 10:30:37;;;;;;;14.02;10.25;;;21.50;99.90;;;;;;5049796;28;20021;-62
2022/07/05 10:33:04;;;;;;;14.52;12.70;;;21.50;99.90;;;;;;5050271;28;20033;-62
2022/07/05 10:35:30;;;;;;;14.23;10.40;;;21.50;99.90;;;;;;5049637;28;20029;-62
2022/07/05 10:37:57;;;;;;;13.73;10.68;;;21.40;99.90;;;;;;5049825;28;20081;-60
2022/07/05 10:40:23;;;;;;;13.75;11.13;;;21.50;99.90;;;;;;5049639;28;20032;-60
2022/07/05 10:42:54;;;;;;;14.00;10.88;;;21.60;99.90;;;;;;5049670;28;20041;-61
2022/07/05 10:45:30;;;;;;;14.18;10.73;;;21.50;99.90;;;;;;5049977;28;20027;-60
2022/07/05 10:48:17;;;;;;;14.30;11.60;;;21.50;99.90;;;;;;5047088;28;20156;-61
2022/07/05 10:50:55;;;;;;;12.63;10.77;;;21.60;99.90;;;;;;5049303;28;20499;-59
2022/07/05 10:53:25;;;;;;;12.95;11.68;;;21.60;99.90;;;;;;5050837;28;20032;-59
2022/07/05 10:55:51;;;;;;;13.55;12.00;;;21.70;99.90;;;;;;5032867;28;20032;-60
2022/07/05 10:58:17;;;;;;;15.43;12.00;;;21.80;99.90;;;;;;5050466;28;20037;-60
2022/07/05 11:00:43;;;;;;;13.18;11.57;;;21.80;99.90;;;;;;5050849;28;20451;-61
2022/07/05 11:03:35;;;;;;;14.23;11.82;;;21.90;99.90;;;;;;5050502;28;20025;-61
2022/07/05 11:06:02;;;;;;;14.55;11.52;;;21.80;99.90;;;;;;5050794;28;20149;-62
2022/07/05 11:08:30;;;;;;;16.95;11.18;;;21.80;99.90;;;;;;5050574;28;20041;-63
2022/07/05 11:11:15;;;;;;;15.57;12.30;;;21.90;99.90;;;;;;5050611;28;20025;-62
2022/07/05 11:13:47;;;;;;;16.08;11.10;;;21.90;99.90;;;;;;5053829;28;20595;-61
2022/07/05 11:16:22;;;;;;;14.00;12.50;;;22.00;99.90;;;;;;5064120;28;20024;-61
2022/07/05 11:19:03;;;;;;;17.27;14.13;;;21.80;99.90;;;;;;5055772;28;20057;-61
2022/07/05 11:21:29;;;;;;;14.00;12.30;;;21.80;99.90;;;;;;5054641;28;20036;-60
2022/07/05 11:24:18;;;;;;;16.65;11.68;;;21.80;99.90;;;;;;5054591;28;20025;-61
2022/07/05 11:26:45;;;;;;;16.80;12.82;;;21.70;99.90;;;;;;5053952;28;20040;-60
2022/07/05 11:29:43;;;;;;;14.85;11.95;;;21.70;99.90;;;;;;5053504;28;20464;-59
2022/07/05 11:32:11;;;;;;;14.50;12.27;;;21.80;99.90;;;;;;5053516;28;20079;-60
2022/07/05 11:34:37;;;;;;;16.20;13.43;;;21.80;99.90;;;;;;5053373;28;20079;-59
2022/07/05 11:37:34;;;;;;;13.77;12.05;;;21.70;99.90;;;;;;5053119;28;20036;-61
2022/07/05 11:40:05;;;;;;;13.95;12.60;;;21.70;99.90;;;;;;5053570;28;20108;-60
2022/07/05 11:42:33;;;;;;;12.48;11.02;;;21.60;99.90;;;;;;5053292;28;20049;-59
2022/07/05 11:44:59;;;;;;;12.50;10.10;;;21.60;99.90;;;;;;5053377;28;20040;-59
2022/07/05 11:47:27;;;;;;;13.02;9.25;;;21.40;99.90;;;;;;5035095;28;20811;-60
2022/07/05 11:49:57;;;;;;;11.80;9.82;;;21.50;99.90;;;;;;5053412;28;20027;-61
2022/07/05 11:52:29;;;;;;;10.45;8.70;;;21.50;99.90;;;;;;5053724;28;20374;-60
2022/07/05 11:54:57;;;;;;;9.57;8.02;;;21.40;99.90;;;;;;5054027;28;20048;-60
2022/07/05 11:57:23;;;;;;;9.15;7.50;;;21.50;99.90;;;;;;5053647;28;20029;-60
2022/07/05 11:59:49;;;;;;;10.93;6.25;;;21.60;99.90;;;;;;5053703;28;20417;-59
2022/07/05 12:02:16;;;;;;;9.63;7.10;;;21.50;99.90;;;;;;5035809;28;20100;-60
2022/07/05 12:04:51;;;;;;;10.45;6.15;;;21.40;99.90;;;;;;5053663;28;20033;-61
2022/07/05 12:07:34;;;;;;;8.90;6.30;;;21.40;99.90;;;;;;5053685;28;20090;-61
2022/07/05 12:12:50;;;;;;;8.77;6.60;;;21.30;99.90;;;;;;5053632;28;20028;-59
2022/07/05 12:15:20;;;;;;;9.13;7.00;;;21.20;99.90;;;;;;5060668;28;20036;-59
2022/07/05 12:17:49;;;;;;;8.20;6.53;;;21.20;99.90;;;;;;5053503;28;20028;-59
2022/07/05 12:20:22;;;;;;;8.45;6.63;;;21.10;99.90;;;;;;5053594;28;20064;-59
2022/07/05 12:22:49;;;;;;;7.70;6.63;;;21.00;99.90;;;;;;5052991;28;20078;-59
2022/07/05 12:25:20;;;;;;;9.15;6.80;;;20.90;99.90;;;;;;5052422;28;20075;-61
2022/07/05 12:27:48;;;;;;;10.52;7.80;;;20.90;99.90;;;;;;5052811;28;20037;-61
2022/07/05 12:30:14;;;;;;;10.30;8.38;;;20.80;99.90;;;;;;5053161;28;20021;-58
2022/07/05 12:33:04;;;;;;;11.07;8.95;;;20.70;99.90;;;;;;5053335;28;20112;-61
2022/07/05 12:35:44;;;;;;;12.35;8.48;;;20.70;99.90;;;;;;5053118;28;20021;-60
2022/07/05 12:38:19;;;;;;;14.00;8.50;;;20.70;99.90;;;;;;5052866;28;20162;-59
2022/07/05 12:40:59;;;;;;;10.30;8.05;;;20.80;99.90;;;;;;5052843;28;20044;-58
2022/07/05 12:43:25;;;;;;;13.07;8.88;;;20.80;99.90;;;;;;5052759;28;20025;-59